createdAt,value
2016-01-31T10:26:28.649Z,100123
2016-01-31T10:26:46.727Z,100120
2016-01-31T10:27:05.008Z,100112
2016-01-31T10:27:23.308Z,100109
2016-01-31T10:27:41.605Z,100111
2016-01-31T10:27:59.918Z,100122
2016-01-31T10:28:18.202Z,100122
2016-01-31T10:28:36.514Z,100121
2016-01-31T10:28:54.780Z,100112
2016-01-31T10:29:13.077Z,100112
2016-01-31T10:29:31.391Z,100115
2016-01-31T10:29:49.673Z,100112
2016-01-31T10:30:08.032Z,100111
2016-01-31T10:30:26.347Z,100106
2016-01-31T10:30:44.738Z,100106
2016-01-31T10:31:03.051Z,100111
2016-01-31T10:31:21.429Z,100103
2016-01-31T10:31:39.725Z,100117
2016-01-31T10:31:58.069Z,100100
2016-01-31T10:32:16.382Z,100114
2016-01-31T10:32:34.696Z,100103
2016-01-31T10:32:52.977Z,100100
2016-01-31T10:33:11.290Z,100105
2016-01-31T10:33:29.605Z,100111
2016-01-31T10:33:47.887Z,100102
2016-01-31T10:34:06.199Z,100108
2016-01-31T10:34:24.500Z,100108
2016-01-31T10:34:42.859Z,100097
2016-01-31T10:35:01.141Z,100094
2016-01-31T10:35:19.487Z,100088
2016-01-31T10:35:37.831Z,100097
2016-01-31T10:35:56.128Z,100108
2016-01-31T10:36:14.456Z,100116
2016-01-31T10:36:32.755Z,100094
2016-01-31T10:36:51.036Z,100099
2016-01-31T10:37:09.333Z,100105
2016-01-31T10:37:27.649Z,100108
2016-01-31T10:37:45.977Z,100102
2016-01-31T10:38:04.274Z,100094
2016-01-31T10:38:22.557Z,100105
2016-01-31T10:38:40.916Z,100102
2016-01-31T10:38:59.182Z,100113
2016-01-31T10:39:17.463Z,100094
2016-01-31T10:39:35.732Z,100096
2016-01-31T10:39:54.013Z,100110
2016-01-31T10:40:12.294Z,100088
2016-01-31T10:40:30.563Z,100096
2016-01-31T10:40:48.844Z,100085
2016-01-31T10:41:07.125Z,100082
2016-01-31T10:41:25.425Z,100082
2016-01-31T10:41:43.706Z,100088
2016-01-31T10:42:02.003Z,100094
2016-01-31T10:42:20.272Z,100096
2016-01-31T10:42:38.553Z,100077
2016-01-31T10:42:56.834Z,100091
2016-01-31T10:43:15.116Z,100085
2016-01-31T10:43:33.399Z,100085
2016-01-31T10:43:51.696Z,100080
2016-01-31T10:44:09.977Z,100102
2016-01-31T10:44:28.246Z,100082
2016-01-31T10:44:46.589Z,100083
2016-01-31T10:45:04.871Z,100083
2016-01-31T10:45:22.999Z,100085
2016-01-31T10:45:41.284Z,100069
2016-01-31T10:45:59.565Z,100069
2016-01-31T10:46:17.862Z,100066
2016-01-31T10:46:36.145Z,100080
2016-01-31T10:46:54.442Z,100077
2016-01-31T10:47:12.708Z,100096
2016-01-31T10:47:31.055Z,100085
2016-01-31T10:47:49.320Z,100077
2016-01-31T10:48:07.617Z,100080
2016-01-31T10:48:25.898Z,100093
2016-01-31T10:48:44.182Z,100069
2016-01-31T10:49:02.307Z,100085
2016-01-31T10:49:20.588Z,100085
2016-01-31T10:49:38.856Z,100058
2016-01-31T10:49:57.171Z,100064
2016-01-31T10:50:15.468Z,100064
2016-01-31T10:50:33.765Z,100066
2016-01-31T10:50:52.034Z,100074
2016-01-31T10:51:10.315Z,100074
2016-01-31T10:51:28.581Z,100082
2016-01-31T10:51:46.850Z,100077
2016-01-31T10:52:05.131Z,100069
2016-01-31T10:52:23.412Z,100074
2016-01-31T10:52:41.693Z,100077
2016-01-31T10:52:59.977Z,100077
2016-01-31T10:53:18.258Z,100064
2016-01-31T10:53:36.539Z,100067
2016-01-31T10:53:54.855Z,100064
2016-01-31T10:54:13.139Z,100067
2016-01-31T10:54:31.248Z,100058
2016-01-31T10:54:49.579Z,100064
2016-01-31T10:55:07.861Z,100077
2016-01-31T10:55:26.142Z,100080
2016-01-31T10:55:44.425Z,100069
2016-01-31T10:56:02.722Z,100085
2016-01-31T10:56:21.003Z,100094
2016-01-31T10:56:39.285Z,100077
2016-01-31T10:56:57.553Z,100064
2016-01-31T10:57:15.819Z,100080
2016-01-31T10:57:34.100Z,100085
2016-01-31T10:57:52.399Z,100082
2016-01-31T10:58:10.696Z,100067
2016-01-31T10:58:28.993Z,100069
2016-01-31T10:58:47.279Z,100080
2016-01-31T10:59:05.544Z,100069
2016-01-31T10:59:23.857Z,100064
2016-01-31T10:59:42.123Z,100074
2016-01-31T11:00:00.407Z,100055
2016-01-31T11:00:18.688Z,100050
2016-01-31T11:00:36.969Z,100055
2016-01-31T11:00:55.241Z,100058
2016-01-31T11:01:13.522Z,100069
2016-01-31T11:01:31.803Z,100067
2016-01-31T11:01:50.087Z,100067
2016-01-31T11:02:08.384Z,100069
2016-01-31T11:02:26.665Z,100080
2016-01-31T11:02:44.930Z,100064
2016-01-31T11:03:03.058Z,100074
2016-01-31T11:03:21.355Z,100069
2016-01-31T11:03:39.652Z,100074
2016-01-31T11:03:57.936Z,100069
2016-01-31T11:04:16.218Z,100080
2016-01-31T11:04:34.483Z,100077
2016-01-31T11:04:52.783Z,100074
2016-01-31T11:05:11.064Z,100067
2016-01-31T11:05:29.347Z,100094
2016-01-31T11:05:47.615Z,100088
2016-01-31T11:06:05.912Z,100080
2016-01-31T11:06:24.178Z,100091
2016-01-31T11:06:42.459Z,100088
2016-01-31T11:07:00.728Z,100077
2016-01-31T11:07:19.040Z,100077
2016-01-31T11:07:37.321Z,100066
2016-01-31T11:07:55.589Z,100091
2016-01-31T11:08:13.870Z,100085
2016-01-31T11:08:32.136Z,100077
2016-01-31T11:08:50.420Z,100069
2016-01-31T11:09:08.701Z,100082
2016-01-31T11:09:26.983Z,100088
2016-01-31T11:09:45.283Z,100077
2016-01-31T11:10:03.583Z,100074
2016-01-31T11:10:21.865Z,100091
2016-01-31T11:10:40.161Z,100102
2016-01-31T11:10:58.507Z,100085
2016-01-31T11:11:16.726Z,100091
2016-01-31T11:11:35.054Z,100088
2016-01-31T11:11:53.323Z,100093
2016-01-31T11:12:11.635Z,100069
2016-01-31T11:12:29.916Z,100091
2016-01-31T13:24:20.498Z,100033
2016-01-31T13:24:38.779Z,100039
2016-01-31T13:24:57.029Z,100036
2016-01-31T13:25:15.313Z,100039
2016-01-31T13:25:33.595Z,100045
2016-01-31T13:25:51.845Z,100062
2016-01-31T13:26:10.126Z,100057
2016-01-31T13:26:28.410Z,100048
2016-01-31T13:26:46.678Z,100048
2016-01-31T13:27:04.975Z,100053
2016-01-31T13:27:23.289Z,100033
2016-01-31T13:27:41.570Z,100050
2016-01-31T13:28:00.008Z,100033
2016-01-31T13:28:18.245Z,100030
2016-01-31T13:28:36.527Z,100041
2016-01-31T13:28:54.823Z,100044
2016-01-31T13:29:13.108Z,100047
2016-01-31T13:29:31.420Z,100041
2016-01-31T13:29:49.748Z,100039
2016-01-31T13:30:08.045Z,100039
2016-01-31T13:30:26.360Z,100038
2016-01-31T13:30:44.625Z,100044
2016-01-31T14:41:56.682Z,100096
2016-01-31T14:42:14.853Z,100096
2016-01-31T14:42:33.119Z,100095
2016-01-31T14:42:51.419Z,100092
2016-01-31T14:43:09.700Z,100086
2016-01-31T14:43:28.435Z,100086
2016-01-31T14:43:46.297Z,100080
2016-01-31T14:44:04.828Z,100064
2016-01-31T14:44:23.094Z,100083
2016-01-31T14:44:41.378Z,100056
2016-01-31T14:44:59.675Z,100058
2016-01-31T14:45:17.941Z,100074
2016-01-31T14:45:36.206Z,100058
2016-01-31T14:45:54.506Z,100058
2016-01-31T14:46:12.772Z,100058
2016-01-31T14:46:31.054Z,100053
2016-01-31T14:46:49.337Z,100058
2016-01-31T14:47:07.634Z,100055
2016-01-31T14:47:25.931Z,100050
2016-01-31T14:47:44.200Z,100041
2016-01-31T14:54:49.021Z,100060
2016-01-31T14:55:07.273Z,100069
2016-01-31T14:55:25.559Z,100063
2016-01-31T14:55:43.856Z,100063
2016-01-31T14:56:02.153Z,100066
2016-01-31T14:56:20.797Z,100057
2016-01-31T14:56:39.203Z,100049
2016-01-31T14:56:57.828Z,100049
2016-01-31T14:57:39.413Z,100063
2016-01-31T14:57:57.694Z,100049
2016-01-31T14:58:15.979Z,100046
2016-01-31T14:58:34.291Z,100040
2016-01-31T14:58:52.572Z,100040
2016-01-31T14:59:10.857Z,100034
2016-01-31T14:59:29.122Z,100034
2016-01-31T14:59:47.403Z,100034
2016-01-31T15:00:05.669Z,100034
2016-01-31T15:00:23.968Z,100017
2016-01-31T15:00:42.234Z,100046
2016-01-31T15:01:00.530Z,100034
2016-01-31T15:01:18.815Z,100037
2016-01-31T15:01:37.127Z,100040
2016-01-31T15:01:55.424Z,100052
2016-01-31T15:02:13.552Z,100049
2016-01-31T15:02:31.865Z,100034
2016-01-31T15:02:50.146Z,100049
2016-01-31T15:03:08.458Z,100052
2016-01-31T15:03:26.570Z,100049
2016-01-31T15:03:44.882Z,100032
2016-01-31T15:04:03.132Z,100049
2016-01-31T15:04:21.448Z,100017
2016-01-31T15:04:39.729Z,100057
2016-01-31T15:04:58.010Z,100054
2016-01-31T15:05:16.279Z,100052
2016-01-31T15:05:34.576Z,100040
2016-01-31T15:05:52.873Z,100046
2016-01-31T15:06:11.141Z,100057
2016-01-31T15:06:29.438Z,100052
2016-01-31T15:06:47.704Z,100052
2016-01-31T15:07:05.954Z,100051
2016-01-31T15:07:24.254Z,100054
2016-01-31T15:07:42.519Z,100051
2016-01-31T15:08:00.816Z,100060
2016-01-31T15:08:19.193Z,100046
2016-01-31T15:08:37.384Z,100054
2016-01-31T15:08:55.775Z,100057
2016-01-31T15:09:14.028Z,100057
2016-01-31T15:09:32.325Z,100066
2016-01-31T15:09:50.606Z,100066
2016-01-31T15:10:08.887Z,100060
2016-01-31T15:10:27.171Z,100066
2016-01-31T15:10:45.456Z,100060
2016-01-31T15:11:03.721Z,100066
2016-01-31T15:11:22.021Z,100054
2016-01-31T15:11:40.334Z,100037
2016-01-31T15:11:58.459Z,100063
2016-01-31T15:12:15.977Z,100054
2016-01-31T15:12:34.259Z,100054
2016-01-31T15:12:52.556Z,100051
2016-01-31T15:13:10.868Z,100060
2016-01-31T15:13:29.167Z,100060
2016-01-31T15:13:47.448Z,100060
2016-01-31T15:14:05.729Z,100063
2016-01-31T15:14:24.139Z,100054
2016-01-31T15:14:42.373Z,100057
2016-01-31T15:15:00.686Z,100057
2016-01-31T15:15:18.970Z,100063
2016-01-31T15:15:37.360Z,100063
2016-01-31T15:15:55.657Z,100060
2016-01-31T15:16:13.956Z,100057
2016-01-31T15:16:32.253Z,100057
2016-01-31T15:16:50.550Z,100049
2016-01-31T15:17:08.831Z,100043
2016-01-31T15:17:27.147Z,100060
2016-01-31T15:17:45.428Z,100066
2016-01-31T15:18:03.709Z,100054
2016-01-31T15:18:21.991Z,100063
2016-01-31T15:18:40.288Z,100060
2016-01-31T15:18:57.898Z,100054
2016-01-31T15:19:16.173Z,100063
2016-01-31T15:19:33.815Z,100029
2016-01-31T15:19:52.080Z,100079
2016-01-31T15:20:10.202Z,100063
2016-01-31T15:20:28.477Z,100063
2016-01-31T15:20:46.742Z,100066
2016-01-31T15:21:05.039Z,100043
2016-01-31T15:21:23.392Z,100073
2016-01-31T15:21:41.674Z,100079
2016-01-31T15:21:59.955Z,100079
2016-01-31T15:22:18.230Z,100079
2016-01-31T15:22:36.433Z,100069
2016-01-31T15:22:54.715Z,100082
2016-01-31T15:23:13.027Z,100066
2016-01-31T15:23:31.288Z,100076
2016-01-31T15:23:49.600Z,100079
2016-01-31T15:24:07.881Z,100069
2016-01-31T15:24:26.069Z,100073
2016-01-31T15:24:44.366Z,100076
2016-01-31T15:25:02.631Z,100054
2016-01-31T15:25:20.912Z,100066
2016-01-31T15:25:39.177Z,100066
2016-01-31T15:25:57.474Z,100054
2016-01-31T15:26:15.787Z,100079
2016-01-31T15:26:34.085Z,100063
2016-01-31T15:26:52.381Z,100066
2016-01-31T15:27:10.678Z,100060
2016-01-31T15:27:28.990Z,100054
2016-01-31T15:27:47.255Z,100063
2016-01-31T15:28:05.568Z,100066
2016-01-31T15:28:23.865Z,100066
2016-01-31T15:28:42.146Z,100063
2016-01-31T15:29:00.427Z,100057
2016-01-31T15:29:18.693Z,100054
2016-01-31T15:29:37.006Z,100054
2016-01-31T15:29:55.303Z,100060
2016-01-31T15:30:13.600Z,100066
2016-01-31T15:30:31.883Z,100066
2016-01-31T15:30:50.150Z,100063
2016-01-31T15:31:08.462Z,100066
2016-01-31T15:31:26.777Z,100051
2016-01-31T15:31:45.074Z,100060
2016-01-31T15:32:03.339Z,100068
2016-01-31T15:32:21.636Z,100054
2016-01-31T15:32:39.919Z,100054
2016-01-31T15:32:58.200Z,100069
2016-01-31T15:33:16.497Z,100054
2016-01-31T15:33:34.797Z,100063
2016-01-31T15:33:53.062Z,100060
2016-01-31T15:34:11.390Z,100066
2016-01-31T15:34:29.687Z,100063
2016-01-31T15:34:47.814Z,100066
2016-01-31T15:35:06.096Z,100060
